createdAt,value
2017-12-02T00:02:13.007Z,0.70
2017-12-02T00:04:41.491Z,0.70
2017-12-02T00:07:09.138Z,0.70
2017-12-02T00:09:37.733Z,0.80
2017-12-02T00:12:05.409Z,0.80
2017-12-02T00:14:33.902Z,0.70
2017-12-02T00:17:02.308Z,0.70
2017-12-02T00:19:29.931Z,0.70
2017-12-02T00:21:57.693Z,0.80
2017-12-02T00:24:25.290Z,1.00
2017-12-02T00:26:53.656Z,1.00
2017-12-02T00:29:22.099Z,1.00
2017-12-02T00:31:50.602Z,1.00
2017-12-02T00:34:19.049Z,1.00
2017-12-02T00:36:46.708Z,1.00
2017-12-02T00:39:15.000Z,1.00
2017-12-02T00:41:43.584Z,1.10
2017-12-02T00:44:11.254Z,1.10
2017-12-02T00:46:38.891Z,1.10
2017-12-02T00:49:06.541Z,1.10
2017-12-02T00:51:34.184Z,1.00
2017-12-02T00:54:01.871Z,1.10
2017-12-02T00:56:29.523Z,1.10
2017-12-02T00:58:57.144Z,1.00
2017-12-02T01:01:25.535Z,1.10
2017-12-02T01:03:53.213Z,1.00
2017-12-02T01:06:20.822Z,1.10
2017-12-02T01:08:49.263Z,1.10
2017-12-02T01:11:16.909Z,1.10
2017-12-02T01:13:44.595Z,1.10
2017-12-02T01:16:12.252Z,1.00
2017-12-02T01:18:40.955Z,1.10
2017-12-02T01:21:08.611Z,1.10
2017-12-02T01:23:36.252Z,1.00
2017-12-02T01:26:03.941Z,1.10
2017-12-02T01:28:33.095Z,1.20
2017-12-02T01:33:35.504Z,1.20
2017-12-02T01:36:03.151Z,1.30
2017-12-02T01:38:30.788Z,1.20
2017-12-02T01:40:58.479Z,1.20
2017-12-02T01:43:26.128Z,1.20
2017-12-02T01:45:54.485Z,1.30
2017-12-02T01:48:22.100Z,1.30
2017-12-02T01:50:49.737Z,1.30
2017-12-02T01:53:17.334Z,1.40
2017-12-02T01:55:44.938Z,1.50
2017-12-02T01:58:13.428Z,1.60
2017-12-02T02:00:41.841Z,1.60
2017-12-02T02:03:09.542Z,1.60
2017-12-02T02:05:37.244Z,1.60
2017-12-02T02:08:04.866Z,1.60
2017-12-02T02:10:32.517Z,1.50
2017-12-02T02:13:00.181Z,1.50
2017-12-02T02:15:27.854Z,1.30
2017-12-02T02:17:55.504Z,1.30
2017-12-02T02:20:23.312Z,1.30
2017-12-02T02:22:51.659Z,1.20
2017-12-02T02:25:19.325Z,1.20
2017-12-02T02:27:46.972Z,1.30
2017-12-02T02:30:14.640Z,1.30
2017-12-02T02:32:42.305Z,1.20
2017-12-02T02:35:10.760Z,1.30
2017-12-02T02:37:38.357Z,1.30
2017-12-02T02:40:06.035Z,1.30
2017-12-02T02:42:34.476Z,1.30
2017-12-02T02:45:02.064Z,1.30
2017-12-02T02:47:30.514Z,1.10
2017-12-02T02:49:58.180Z,1.10
2017-12-02T02:52:25.808Z,1.20
2017-12-02T02:54:53.433Z,1.30
2017-12-02T02:57:21.084Z,1.30
2017-12-02T02:59:48.697Z,1.40
2017-12-02T03:02:16.315Z,1.30
2017-12-02T03:04:44.737Z,1.00
2017-12-02T03:07:12.333Z,1.00
2017-12-02T03:09:40.120Z,1.00
2017-12-02T03:12:07.820Z,1.10
2017-12-02T03:14:35.499Z,1.10
2017-12-02T03:17:03.192Z,1.10
2017-12-02T03:19:30.851Z,1.00
2017-12-02T03:21:58.521Z,1.00
2017-12-02T03:24:26.183Z,1.20
2017-12-02T03:26:53.956Z,1.20
2017-12-02T03:29:21.583Z,1.30
2017-12-02T03:31:49.247Z,1.30
2017-12-02T03:34:16.840Z,1.40
2017-12-02T03:36:44.559Z,1.40
2017-12-02T03:39:12.237Z,1.30
2017-12-02T03:41:39.898Z,1.40
2017-12-02T03:44:07.553Z,1.30
2017-12-02T03:46:35.218Z,1.30
2017-12-02T03:49:02.852Z,1.30
2017-12-02T03:51:30.472Z,1.30
2017-12-02T03:53:58.166Z,1.20
2017-12-02T03:56:25.833Z,1.10
2017-12-02T03:58:53.514Z,1.20
2017-12-02T04:01:21.265Z,1.20
2017-12-02T04:03:48.909Z,1.20
2017-12-02T04:06:17.352Z,1.30
2017-12-02T04:08:45.031Z,1.20
2017-12-02T04:11:13.470Z,1.20
2017-12-02T04:13:41.185Z,1.20
2017-12-02T04:16:09.607Z,1.10
2017-12-02T04:18:37.282Z,1.10
2017-12-02T04:21:04.989Z,1.10
2017-12-02T04:23:33.538Z,1.10
2017-12-02T04:26:01.196Z,1.00
2017-12-02T04:28:28.861Z,1.10
2017-12-02T04:30:56.552Z,1.10
2017-12-02T04:33:24.992Z,1.20
2017-12-02T04:35:53.456Z,1.20
2017-12-02T04:38:21.107Z,1.30
2017-12-02T04:40:48.761Z,1.30
2017-12-02T04:43:16.381Z,1.40
2017-12-02T04:45:44.024Z,1.40
2017-12-02T04:48:11.682Z,1.40
2017-12-02T04:50:39.295Z,1.30
2017-12-02T04:53:07.752Z,1.40
2017-12-02T04:55:35.492Z,1.30
2017-12-02T04:58:03.146Z,1.30
2017-12-02T05:00:30.893Z,1.30
2017-12-02T05:02:58.572Z,1.10
2017-12-02T05:05:26.210Z,1.20
2017-12-02T05:07:53.880Z,1.00
2017-12-02T05:10:21.570Z,1.00
2017-12-02T05:12:49.220Z,1.10
2017-12-02T05:15:16.888Z,1.00
2017-12-02T05:17:44.551Z,1.00
2017-12-02T05:20:12.615Z,0.90
2017-12-02T05:22:40.362Z,0.80
2017-12-02T05:25:08.014Z,0.80
2017-12-02T05:27:35.691Z,0.80
2017-12-02T05:30:03.366Z,0.80
2017-12-02T05:32:31.005Z,0.90
2017-12-02T05:34:58.693Z,0.90
2017-12-02T05:37:26.360Z,0.90
2017-12-02T05:39:54.018Z,1.00
2017-12-02T05:42:21.660Z,0.90
2017-12-02T05:44:49.293Z,0.90
2017-12-02T05:47:17.705Z,0.70
2017-12-02T05:49:45.293Z,0.70
2017-12-02T05:52:12.977Z,0.80
2017-12-02T05:54:40.620Z,0.90
2017-12-02T05:57:09.019Z,0.90
2017-12-02T05:59:36.757Z,0.90
2017-12-02T06:02:04.443Z,0.90
2017-12-02T06:04:32.081Z,1.00
2017-12-02T06:06:59.811Z,1.00
2017-12-02T06:09:27.454Z,1.00
2017-12-02T06:11:55.075Z,1.00
2017-12-02T06:14:22.716Z,1.10
2017-12-02T06:16:51.404Z,1.30
2017-12-02T06:19:19.068Z,1.30
2017-12-02T06:21:46.761Z,1.30
2017-12-02T06:24:14.458Z,1.40
2017-12-02T06:26:42.076Z,1.40
2017-12-02T06:29:09.759Z,1.40
2017-12-02T06:31:38.178Z,1.40
2017-12-02T06:34:06.616Z,1.40
2017-12-02T06:36:35.628Z,1.20
2017-12-02T06:39:04.153Z,1.10
2017-12-02T06:41:33.006Z,1.10
2017-12-02T06:44:00.902Z,1.20
2017-12-02T06:46:28.702Z,1.20
2017-12-02T06:48:56.353Z,1.30
2017-12-02T06:51:24.043Z,1.40
2017-12-02T06:53:52.392Z,1.30
2017-12-02T06:56:20.109Z,1.20
2017-12-02T06:58:47.881Z,1.30
2017-12-02T07:01:15.549Z,1.20
2017-12-02T07:03:43.195Z,1.20
2017-12-02T07:06:10.858Z,1.30
2017-12-02T07:08:39.458Z,1.30
2017-12-02T07:11:07.122Z,1.20
2017-12-02T07:13:34.862Z,1.10
2017-12-02T07:16:02.623Z,1.20
2017-12-02T07:18:30.359Z,1.20
2017-12-02T07:20:58.021Z,1.20
2017-12-02T07:23:25.722Z,1.20
2017-12-02T07:25:53.467Z,1.20
2017-12-02T07:28:21.920Z,1.10
2017-12-02T07:30:50.384Z,1.00
2017-12-02T07:33:17.993Z,1.00
2017-12-02T07:35:46.407Z,1.00
2017-12-02T07:38:14.000Z,0.90
2017-12-02T07:40:41.658Z,1.00
2017-12-02T07:43:09.268Z,1.10
2017-12-02T07:45:36.998Z,1.00
2017-12-02T07:48:04.714Z,0.90
2017-12-02T07:50:33.372Z,1.00
2017-12-02T07:53:01.674Z,1.00
2017-12-02T07:55:29.362Z,1.10
2017-12-02T07:57:57.001Z,1.20
2017-12-02T08:00:24.640Z,1.30
2017-12-02T08:02:52.345Z,1.30
2017-12-02T08:05:19.971Z,1.20
2017-12-02T08:07:47.663Z,1.20
2017-12-02T08:10:15.514Z,1.20
2017-12-02T08:12:43.111Z,1.20
2017-12-02T08:15:10.774Z,1.40
2017-12-02T08:17:38.534Z,1.40
2017-12-02T08:20:06.188Z,1.30
2017-12-02T08:22:33.769Z,1.30
2017-12-02T08:25:01.476Z,1.10
2017-12-02T08:27:29.161Z,1.20
2017-12-02T08:29:56.808Z,1.20
2017-12-02T08:32:24.447Z,1.30
2017-12-02T08:34:52.860Z,1.40
2017-12-02T08:37:20.569Z,1.40
2017-12-02T08:39:48.290Z,1.50
2017-12-02T08:42:16.683Z,1.50
2017-12-02T08:44:44.367Z,1.50
2017-12-02T08:47:12.875Z,1.40
2017-12-02T08:49:40.531Z,1.50
2017-12-02T08:52:08.983Z,1.40
2017-12-02T08:54:36.671Z,1.40
2017-12-02T08:57:05.279Z,1.50
2017-12-02T08:59:33.000Z,1.20
2017-12-02T09:02:00.601Z,1.30
2017-12-02T09:04:28.337Z,1.00
2017-12-02T09:06:55.951Z,1.10
2017-12-02T09:09:23.608Z,1.10
2017-12-02T09:11:51.249Z,1.10
2017-12-02T09:14:18.891Z,1.20
2017-12-02T09:16:47.308Z,1.10
2017-12-02T09:19:14.947Z,1.10
2017-12-02T09:21:42.588Z,1.20
2017-12-02T09:24:10.300Z,1.10
2017-12-02T09:26:38.817Z,1.10
2017-12-02T09:29:06.529Z,1.20
2017-12-02T09:31:34.195Z,1.30
2017-12-02T09:34:01.866Z,1.40
2017-12-02T09:36:29.481Z,1.40
2017-12-02T09:38:57.928Z,1.50
2017-12-02T09:41:25.592Z,1.40
2017-12-02T09:43:53.205Z,1.50
2017-12-02T09:46:20.996Z,1.60
2017-12-02T09:48:48.622Z,1.60
2017-12-02T09:51:16.417Z,1.60
2017-12-02T09:53:44.121Z,1.40
2017-12-02T09:56:11.922Z,1.50
2017-12-02T09:58:39.566Z,1.40
2017-12-02T10:01:09.023Z,1.40
2017-12-02T10:03:36.827Z,1.40
2017-12-02T10:06:04.466Z,1.40
2017-12-02T10:08:32.156Z,1.30
2017-12-02T10:10:59.791Z,1.40
2017-12-02T10:13:27.492Z,1.40
2017-12-02T10:15:55.142Z,1.40
2017-12-02T10:18:23.634Z,1.30
2017-12-02T10:20:51.370Z,1.30
2017-12-02T10:23:19.058Z,1.40
2017-12-02T10:25:47.503Z,1.40
2017-12-02T10:28:15.196Z,1.40
2017-12-02T10:30:43.645Z,1.60
2017-12-02T10:33:11.327Z,1.60
2017-12-02T10:35:39.985Z,1.60
2017-12-02T10:38:07.600Z,1.60
2017-12-02T10:40:35.232Z,1.70
2017-12-02T10:43:02.888Z,1.70
2017-12-02T10:45:31.810Z,1.50
2017-12-02T10:48:00.281Z,1.40
2017-12-02T10:50:27.994Z,1.40
2017-12-02T10:52:55.650Z,1.50
2017-12-02T10:55:23.270Z,1.50
2017-12-02T10:57:51.003Z,1.50
2017-12-02T11:00:18.756Z,1.50
2017-12-02T11:02:46.429Z,1.50
2017-12-02T11:05:14.085Z,1.50
2017-12-02T11:07:41.744Z,1.60
2017-12-02T11:10:09.531Z,1.50
2017-12-02T11:12:37.181Z,1.70
2017-12-02T11:15:04.833Z,1.60
2017-12-02T11:17:33.209Z,1.50
2017-12-02T11:20:00.883Z,1.50
2017-12-02T11:22:28.717Z,1.50
2017-12-02T11:24:56.377Z,1.40
2017-12-02T11:27:24.061Z,1.50
2017-12-02T11:29:51.725Z,1.40
2017-12-02T11:32:19.358Z,1.40
2017-12-02T11:34:46.978Z,1.20
2017-12-02T11:37:15.383Z,1.50
2017-12-02T11:39:42.996Z,1.50
2017-12-02T11:42:10.643Z,1.40
2017-12-02T11:44:38.307Z,1.30
2017-12-02T11:47:05.942Z,1.40
2017-12-02T11:49:33.627Z,1.40
2017-12-02T11:52:01.291Z,1.50
2017-12-02T11:54:28.960Z,1.50
2017-12-02T11:56:56.641Z,1.50
2017-12-02T11:59:24.306Z,1.50
2017-12-02T12:01:52.894Z,1.30
2017-12-02T12:04:21.359Z,1.30
2017-12-02T12:06:49.077Z,1.30
2017-12-02T12:09:16.716Z,1.50
2017-12-02T12:11:44.331Z,1.30
2017-12-02T12:14:12.022Z,1.60
2017-12-02T12:16:40.407Z,1.60
2017-12-02T12:19:08.768Z,1.70
2017-12-02T12:21:36.472Z,1.70
2017-12-02T12:24:04.078Z,1.80
2017-12-02T12:26:31.712Z,1.80
2017-12-02T12:28:59.329Z,1.70
2017-12-02T12:31:27.743Z,1.80
2017-12-02T12:33:55.385Z,1.80
2017-12-02T12:36:23.072Z,1.70
2017-12-02T12:38:50.691Z,1.70
2017-12-02T12:41:19.100Z,1.80
2017-12-02T12:43:46.723Z,1.80
2017-12-02T12:46:14.332Z,1.80
2017-12-02T12:48:43.828Z,1.90
2017-12-02T12:51:11.421Z,1.90
2017-12-02T12:53:39.120Z,2.00
2017-12-02T12:56:07.849Z,1.90
2017-12-02T12:58:35.519Z,1.80
2017-12-02T13:01:03.157Z,1.70
2017-12-02T13:03:30.792Z,1.60
2017-12-02T13:05:59.186Z,1.60
2017-12-02T13:08:26.923Z,1.60
2017-12-02T13:10:54.612Z,1.60
2017-12-02T13:13:22.333Z,1.60
2017-12-02T13:15:49.968Z,1.60
2017-12-02T13:18:17.616Z,1.70
2017-12-02T13:20:45.234Z,1.80
2017-12-02T13:23:12.838Z,1.70
2017-12-02T13:25:40.546Z,1.60
2017-12-02T13:28:08.164Z,1.60
2017-12-02T13:30:35.804Z,1.70
2017-12-02T13:33:03.447Z,1.60
2017-12-02T13:35:31.077Z,1.70
2017-12-02T13:37:58.740Z,1.60
2017-12-02T13:40:26.446Z,1.50
2017-12-02T13:42:54.890Z,1.50
2017-12-02T13:45:22.610Z,1.50
2017-12-02T13:47:50.263Z,1.30
2017-12-02T13:50:17.873Z,1.30
2017-12-02T13:52:45.610Z,1.50
2017-12-02T13:55:14.498Z,1.60
2017-12-02T13:57:42.227Z,1.60
2017-12-02T14:00:09.924Z,1.70
2017-12-02T14:02:37.682Z,1.70
2017-12-02T14:05:06.857Z,1.50
2017-12-02T14:07:34.655Z,1.20
2017-12-02T14:10:02.492Z,1.00
2017-12-02T14:12:30.218Z,0.90
2017-12-02T14:14:57.858Z,1.00
2017-12-02T14:17:25.594Z,0.90
2017-12-02T14:19:54.132Z,1.20
2017-12-02T14:22:21.817Z,1.20
2017-12-02T14:24:50.390Z,1.30
2017-12-02T14:27:18.053Z,1.30
2017-12-02T14:29:45.675Z,1.40
2017-12-02T14:32:13.708Z,1.30
2017-12-02T14:34:42.669Z,1.30
2017-12-02T14:37:10.439Z,1.30
2017-12-02T14:39:38.762Z,1.20
2017-12-02T14:42:06.447Z,1.10
2017-12-02T14:44:34.318Z,1.10
2017-12-02T14:47:02.787Z,1.20
2017-12-02T14:49:33.520Z,1.20
2017-12-02T14:52:01.161Z,1.20
2017-12-02T14:54:29.667Z,1.20
2017-12-02T14:56:57.340Z,1.10
2017-12-02T14:59:24.989Z,1.00
2017-12-02T15:01:52.628Z,1.10
2017-12-02T15:04:20.271Z,1.30
2017-12-02T15:06:47.951Z,1.30
2017-12-02T15:09:15.610Z,1.40
2017-12-02T15:11:43.252Z,1.20
2017-12-02T15:14:11.037Z,1.00
2017-12-02T15:16:38.805Z,1.20
2017-12-02T15:19:06.448Z,1.20
2017-12-02T15:21:34.673Z,1.10
2017-12-02T15:24:03.052Z,1.00
2017-12-02T15:26:30.661Z,1.00
2017-12-02T15:28:58.411Z,1.10
2017-12-02T15:31:26.018Z,1.20
2017-12-02T15:33:54.708Z,1.30
2017-12-02T15:36:22.479Z,1.30
2017-12-02T15:38:50.808Z,1.40
2017-12-02T15:41:18.495Z,1.50
2017-12-02T15:43:46.996Z,1.60
2017-12-02T15:46:15.409Z,1.70
2017-12-02T15:48:43.279Z,1.70
2017-12-02T15:51:11.730Z,1.80
2017-12-02T15:53:39.384Z,1.80
2017-12-02T15:56:07.058Z,1.80
2017-12-02T15:58:34.679Z,1.80
2017-12-02T16:01:02.497Z,1.70
2017-12-02T16:03:30.193Z,1.90
2017-12-02T16:05:58.149Z,1.80
2017-12-02T16:08:25.838Z,1.60
2017-12-02T16:10:53.719Z,1.50
2017-12-02T16:13:22.119Z,1.40
2017-12-02T16:15:49.816Z,1.40
2017-12-02T16:18:17.602Z,1.60
2017-12-02T16:20:45.212Z,1.60
2017-12-02T16:23:12.888Z,1.50
2017-12-02T16:25:40.494Z,1.40
2017-12-02T16:28:08.171Z,1.50
2017-12-02T16:30:36.577Z,1.50
2017-12-02T16:33:04.279Z,1.40
2017-12-02T16:35:31.931Z,1.40
2017-12-02T16:38:00.331Z,1.40
2017-12-02T16:40:28.037Z,1.40
2017-12-02T16:42:55.870Z,1.50
2017-12-02T16:45:23.587Z,1.50
2017-12-02T16:47:51.307Z,1.60
2017-12-02T16:50:19.003Z,1.60
2017-12-02T16:52:46.694Z,1.60
2017-12-02T16:55:14.312Z,1.50
2017-12-02T16:57:42.031Z,1.30
2017-12-02T17:00:09.687Z,1.40
2017-12-02T17:02:37.374Z,1.50
2017-12-02T17:05:05.119Z,1.40
2017-12-02T17:07:33.551Z,1.50
2017-12-02T17:10:01.189Z,1.50
2017-12-02T17:12:29.663Z,1.50
2017-12-02T17:14:57.344Z,1.50
2017-12-02T17:17:25.003Z,1.50
2017-12-02T17:19:53.415Z,1.50
2017-12-02T17:22:21.088Z,1.40
2017-12-02T17:24:49.403Z,1.40
2017-12-02T17:27:17.027Z,1.40
2017-12-02T17:29:44.654Z,1.30
2017-12-02T17:32:12.354Z,1.40
2017-12-02T17:34:40.774Z,1.40
2017-12-02T17:37:08.445Z,1.40
2017-12-02T17:39:36.159Z,1.30
2017-12-02T17:42:03.871Z,1.30
2017-12-02T17:44:31.587Z,1.20
2017-12-02T17:46:59.335Z,1.30
2017-12-02T17:49:26.956Z,1.30
2017-12-02T17:51:54.630Z,1.40
2017-12-02T17:54:22.334Z,1.30
2017-12-02T17:56:49.964Z,1.30
2017-12-02T17:59:17.689Z,1.40
2017-12-02T18:01:45.337Z,1.30
2017-12-02T18:04:13.047Z,1.40
2017-12-02T18:06:41.378Z,1.30
2017-12-02T18:09:08.979Z,1.30
2017-12-02T18:11:37.387Z,1.40
2017-12-02T18:14:05.025Z,1.30
2017-12-02T18:16:32.715Z,1.40
2017-12-02T18:19:00.361Z,1.50
2017-12-02T18:21:27.953Z,1.60
2017-12-02T18:23:55.617Z,1.60
2017-12-02T18:26:23.231Z,1.70
2017-12-02T18:28:50.835Z,1.70
2017-12-02T18:31:20.647Z,1.70
2017-12-02T18:33:48.382Z,1.60
2017-12-02T18:36:16.161Z,1.60
2017-12-02T18:38:43.726Z,1.70
2017-12-02T18:41:11.410Z,1.70
2017-12-02T18:43:39.086Z,1.60
2017-12-02T18:46:06.917Z,1.60
2017-12-02T18:48:34.544Z,1.60
2017-12-02T18:51:02.251Z,1.60
2017-12-02T18:53:29.839Z,1.70
2017-12-02T18:55:57.507Z,1.60
2017-12-02T18:58:25.993Z,1.80
2017-12-02T19:00:53.640Z,1.80
2017-12-02T19:03:21.248Z,1.70
2017-12-02T19:05:49.693Z,1.70
2017-12-02T19:08:17.320Z,1.70
2017-12-02T19:10:45.035Z,1.50
2017-12-02T19:13:12.717Z,1.50
2017-12-02T19:15:40.345Z,1.50
2017-12-02T19:18:08.749Z,1.60
2017-12-02T19:20:36.421Z,1.50
2017-12-02T19:23:04.109Z,1.60
2017-12-02T19:25:31.868Z,1.60
2017-12-02T19:27:59.468Z,1.60
2017-12-02T19:30:27.144Z,1.70
2017-12-02T19:32:55.599Z,1.80
2017-12-02T19:35:24.013Z,1.80
2017-12-02T19:37:51.605Z,1.70
2017-12-02T19:40:19.259Z,1.70
2017-12-02T19:42:46.952Z,1.70
2017-12-02T19:45:14.635Z,1.80
2017-12-02T19:47:43.033Z,1.60
2017-12-02T19:50:11.151Z,1.60
2017-12-02T19:52:39.287Z,1.60
2017-12-02T19:55:07.064Z,1.60
2017-12-02T19:57:34.697Z,1.50
2017-12-02T20:00:02.396Z,1.40
2017-12-02T20:02:30.071Z,1.30
2017-12-02T20:04:57.694Z,1.30
2017-12-02T20:07:25.291Z,1.40
2017-12-02T20:09:52.934Z,1.40
2017-12-02T20:12:21.501Z,1.30
2017-12-02T20:14:49.097Z,1.30
2017-12-02T20:17:17.346Z,1.40
2017-12-02T20:19:45.025Z,1.40
2017-12-02T20:22:12.796Z,1.40
2017-12-02T20:24:40.454Z,1.50
2017-12-02T20:27:08.099Z,1.50
2017-12-02T20:29:35.904Z,1.40
2017-12-02T20:32:03.480Z,1.50
2017-12-02T20:34:31.109Z,1.50
2017-12-02T20:36:58.683Z,1.50
2017-12-02T20:39:26.415Z,1.40
2017-12-02T20:41:54.094Z,1.30
2017-12-02T20:44:21.778Z,1.30
2017-12-02T20:46:49.418Z,1.40
2017-12-02T20:49:17.042Z,1.50
2017-12-02T20:51:45.390Z,1.50
2017-12-02T20:54:13.002Z,1.50
2017-12-02T20:56:40.611Z,1.70
2017-12-02T20:59:08.227Z,1.80
2017-12-02T21:01:36.836Z,1.70
2017-12-02T21:04:04.466Z,1.80
2017-12-02T21:06:32.055Z,1.70
2017-12-02T21:08:59.695Z,1.70
2017-12-02T21:11:27.285Z,1.70
2017-12-02T21:13:54.917Z,1.80
2017-12-02T21:16:22.538Z,1.90
2017-12-02T21:18:50.908Z,1.80
2017-12-02T21:21:18.547Z,1.80
2017-12-02T21:23:46.172Z,1.90
2017-12-02T21:26:13.826Z,1.80
2017-12-02T21:28:41.396Z,1.80
2017-12-02T21:31:09.051Z,1.70
2017-12-02T21:33:36.701Z,1.70
2017-12-02T21:36:04.475Z,1.70
2017-12-02T21:38:32.140Z,1.70
2017-12-02T21:40:59.795Z,1.60
2017-12-02T21:43:27.509Z,1.60
2017-12-02T21:45:55.168Z,1.70
2017-12-02T21:48:22.771Z,1.60
2017-12-02T21:50:51.201Z,1.40
2017-12-02T21:53:18.909Z,1.40
2017-12-02T21:55:46.538Z,1.40
2017-12-02T21:58:14.154Z,1.40
2017-12-02T22:00:41.821Z,1.30
2017-12-02T22:03:09.460Z,1.30
2017-12-02T22:05:37.041Z,1.50
2017-12-02T22:08:04.852Z,1.60
2017-12-02T22:10:32.565Z,1.50
2017-12-02T22:13:00.156Z,1.50
2017-12-02T22:15:27.756Z,1.60
2017-12-02T22:17:55.456Z,1.50
2017-12-02T22:20:23.039Z,1.50
2017-12-02T22:22:50.843Z,1.50
2017-12-02T22:25:18.444Z,1.50
2017-12-02T22:27:46.837Z,1.40
2017-12-02T22:30:14.483Z,1.40
2017-12-02T22:32:42.055Z,1.40
2017-12-02T22:35:09.765Z,1.50
2017-12-02T22:37:37.636Z,1.40
2017-12-02T22:40:05.298Z,1.30
2017-12-02T22:42:33.037Z,1.40
2017-12-02T22:45:01.495Z,1.30
2017-12-02T22:47:29.171Z,1.30
2017-12-02T22:49:57.584Z,1.30
2017-12-02T22:52:25.217Z,1.30
2017-12-02T22:54:53.642Z,1.40
2017-12-02T22:57:21.309Z,1.40
2017-12-02T22:59:48.873Z,1.50
2017-12-02T23:02:16.941Z,1.60
2017-12-02T23:04:44.599Z,1.60
2017-12-02T23:07:12.200Z,1.50
2017-12-02T23:09:40.653Z,1.40
2017-12-02T23:12:08.309Z,1.40
2017-12-02T23:14:35.973Z,1.40
2017-12-02T23:17:03.612Z,1.30
2017-12-02T23:19:31.233Z,1.30
2017-12-02T23:21:58.882Z,1.30
2017-12-02T23:24:27.247Z,1.30
2017-12-02T23:26:54.903Z,1.30
2017-12-02T23:29:22.549Z,1.30
2017-12-02T23:31:50.206Z,1.40
2017-12-02T23:34:17.784Z,1.30
2017-12-02T23:36:45.419Z,1.40
2017-12-02T23:39:13.201Z,1.60
2017-12-02T23:41:40.776Z,1.60
2017-12-02T23:44:08.440Z,1.70
2017-12-02T23:46:36.080Z,1.70
2017-12-02T23:49:04.616Z,1.50
2017-12-02T23:51:33.057Z,1.50
2017-12-02T23:54:00.676Z,1.50
2017-12-02T23:56:28.269Z,1.60
2017-12-02T23:58:55.953Z,1.50
